createdAt,value
2023-05-15T00:00:44.324Z,95.83
2023-05-15T00:03:46.847Z,95.86
2023-05-15T00:06:49.445Z,96.01
2023-05-15T00:09:51.910Z,95.79
2023-05-15T00:12:56.049Z,95.94
2023-05-15T00:15:58.472Z,95.89
2023-05-15T00:19:01.090Z,95.96
2023-05-15T00:22:03.700Z,95.92
2023-05-15T00:25:06.736Z,95.79
2023-05-15T00:28:09.256Z,95.48
2023-05-15T00:31:13.176Z,95.57
2023-05-15T00:34:15.625Z,95.76
2023-05-15T00:37:18.059Z,95.75
2023-05-15T00:40:24.267Z,95.16
2023-05-15T00:43:28.716Z,94.94
2023-05-15T00:46:32.734Z,94.88
2023-05-15T00:49:37.450Z,95.24
2023-05-15T00:52:39.853Z,95.12
2023-05-15T00:55:43.167Z,95.58
2023-05-15T00:58:50.700Z,95.98
2023-05-15T01:01:55.452Z,96.44
2023-05-15T01:04:57.978Z,96.51
2023-05-15T01:08:21.379Z,96.57
2023-05-15T01:11:27.619Z,96.35
2023-05-15T01:14:30.074Z,96.48
2023-05-15T01:17:32.541Z,96.11
2023-05-15T01:21:01.964Z,96.51
2023-05-15T01:24:30.117Z,96.61
2023-05-15T01:27:32.474Z,96.23
2023-05-15T01:30:38.665Z,96.37
2023-05-15T01:33:45.847Z,96.04
2023-05-15T01:36:53.447Z,95.71
2023-05-15T01:40:00.984Z,96.15
2023-05-15T01:43:09.522Z,96.07
2023-05-15T01:46:19.385Z,96.05
2023-05-15T01:49:27.362Z,95.51
2023-05-15T01:52:33.942Z,95.32
2023-05-15T01:55:38.810Z,95.32
2023-05-15T01:58:42.877Z,95.39
2023-05-15T02:01:46.780Z,95.58
2023-05-15T02:04:51.685Z,95.28
2023-05-15T02:07:56.083Z,95.38
2023-05-15T02:11:03.269Z,94.74
2023-05-15T02:14:06.110Z,95.12
2023-05-15T02:17:08.684Z,95.46
2023-05-15T02:20:11.526Z,94.70
2023-05-15T02:23:13.924Z,95.11
2023-05-15T02:26:49.025Z,95.12
2023-05-15T02:30:21.599Z,95.24
2023-05-15T02:33:41.898Z,94.98
2023-05-15T02:36:48.540Z,95.38
2023-05-15T02:39:54.593Z,96.08
2023-05-15T02:42:57.841Z,96.38
2023-05-15T02:46:00.712Z,96.79
2023-05-15T02:49:04.070Z,97.48
2023-05-15T02:52:07.510Z,97.54
2023-05-15T02:55:10.333Z,97.63
2023-05-15T02:58:12.965Z,97.61
2023-05-15T03:01:15.426Z,97.85
2023-05-15T03:04:18.079Z,97.83
2023-05-15T03:07:20.761Z,97.90
2023-05-15T03:10:24.282Z,97.57
2023-05-15T03:13:26.779Z,97.67
2023-05-15T03:16:29.520Z,97.62
2023-05-15T03:19:32.115Z,97.59
2023-05-15T03:22:34.767Z,97.83
2023-05-15T03:25:37.254Z,97.80
2023-05-15T03:28:41.647Z,97.42
2023-05-15T03:31:44.712Z,97.50
2023-05-15T03:34:47.263Z,97.70
2023-05-15T03:37:50.019Z,97.56
2023-05-15T03:40:52.537Z,97.69
2023-05-15T03:43:54.964Z,97.58
2023-05-15T03:46:57.527Z,97.91
2023-05-15T03:50:00.149Z,98.12
2023-05-15T03:53:02.819Z,98.10
2023-05-15T03:56:06.011Z,97.83
2023-05-15T03:59:08.588Z,97.58
2023-05-15T04:02:11.447Z,97.15
2023-05-15T04:05:13.906Z,97.13
2023-05-15T04:08:16.755Z,96.96
2023-05-15T04:11:19.562Z,96.74
2023-05-15T04:14:21.998Z,96.01
2023-05-15T04:17:24.442Z,96.04
2023-05-15T04:20:26.961Z,96.13
2023-05-15T04:23:29.445Z,95.52
2023-05-15T04:26:32.007Z,95.71
2023-05-15T04:29:34.560Z,95.14
2023-05-15T04:32:38.588Z,94.55
2023-05-15T04:35:42.765Z,93.61
2023-05-15T04:38:45.318Z,93.98
2023-05-15T04:41:47.832Z,93.84
2023-05-15T04:44:51.112Z,93.91
2023-05-15T04:47:53.682Z,93.70
2023-05-15T04:50:56.242Z,93.70
2023-05-15T04:53:58.628Z,93.71
2023-05-15T04:57:01.408Z,93.29
2023-05-15T05:00:11.969Z,93.50
2023-05-15T05:03:14.530Z,93.27
2023-05-15T05:06:17.218Z,93.14
2023-05-15T05:09:20.134Z,93.60
2023-05-15T05:12:22.583Z,93.96
2023-05-15T05:15:25.472Z,94.29
2023-05-15T05:18:28.058Z,93.66
2023-05-15T05:21:31.015Z,92.93
2023-05-15T05:24:35.879Z,92.23
2023-05-15T05:27:38.604Z,92.45
2023-05-15T05:30:45.451Z,91.88
2023-05-15T05:33:49.853Z,91.84
2023-05-15T05:36:52.527Z,90.02
2023-05-15T05:39:55.022Z,90.21
2023-05-15T05:43:02.085Z,90.44
2023-05-15T05:46:04.667Z,90.61
2023-05-15T05:49:07.144Z,90.65
2023-05-15T05:52:11.359Z,89.62
2023-05-15T05:55:14.393Z,88.71
2023-05-15T06:01:27.770Z,86.72
2023-05-15T06:04:34.128Z,86.48
2023-05-15T06:07:36.905Z,86.49
2023-05-15T06:10:40.041Z,85.48
2023-05-15T06:13:43.492Z,85.56
2023-05-15T06:16:46.151Z,83.84
2023-05-15T06:19:49.430Z,82.82
2023-05-15T06:22:51.871Z,81.83
2023-05-15T06:25:54.366Z,81.94
2023-05-15T06:28:56.815Z,79.58
2023-05-15T06:31:59.280Z,80.47
2023-05-15T06:35:02.392Z,78.21
2023-05-15T06:38:04.922Z,79.99
2023-05-15T06:41:07.421Z,78.77
2023-05-15T06:44:09.858Z,77.76
2023-05-15T06:47:12.430Z,76.50
2023-05-15T06:50:15.007Z,77.24
2023-05-15T06:53:18.705Z,77.40
2023-05-15T06:56:21.878Z,76.96
2023-05-15T06:59:24.400Z,77.38
2023-05-15T07:02:26.925Z,77.42
2023-05-15T07:05:29.498Z,75.57
2023-05-15T07:08:32.136Z,74.73
2023-05-15T07:11:37.425Z,72.84
2023-05-15T07:14:39.955Z,73.32
2023-05-15T07:17:42.482Z,71.38
2023-05-15T07:20:45.254Z,71.30
2023-05-15T07:23:47.761Z,70.64
2023-05-15T07:26:58.251Z,71.34
2023-05-15T07:30:04.184Z,72.07
2023-05-15T07:33:06.936Z,73.31
2023-05-15T07:36:09.684Z,74.28
2023-05-15T07:39:13.431Z,73.25
2023-05-15T07:42:15.932Z,70.94
2023-05-15T07:45:18.655Z,69.74
2023-05-15T07:48:21.206Z,70.73
2023-05-15T07:51:23.877Z,71.44
2023-05-15T07:54:26.963Z,72.07
2023-05-15T07:57:29.950Z,72.49
2023-05-15T08:00:32.517Z,72.12
2023-05-15T08:03:35.006Z,72.20
2023-05-15T08:06:38.607Z,72.82
2023-05-15T08:09:41.428Z,72.88
2023-05-15T08:12:46.617Z,74.94
2023-05-15T08:15:49.088Z,74.39
2023-05-15T08:18:53.634Z,72.26
2023-05-15T08:21:56.261Z,69.55
2023-05-15T08:25:00.159Z,66.74
2023-05-15T08:28:02.996Z,65.46
2023-05-15T08:31:05.364Z,63.92
2023-05-15T08:34:07.924Z,64.86
2023-05-15T08:37:10.668Z,66.59
2023-05-15T08:40:13.441Z,66.08
2023-05-15T08:43:18.314Z,64.74
2023-05-15T08:46:21.533Z,65.27
2023-05-15T08:49:32.926Z,64.38
2023-05-15T08:52:36.205Z,64.66
2023-05-15T08:55:38.791Z,64.39
2023-05-15T08:58:42.196Z,65.55
2023-05-15T09:01:45.713Z,66.99
2023-05-15T09:04:48.623Z,67.95
2023-05-15T09:07:53.022Z,67.11
2023-05-15T09:10:56.715Z,66.08
2023-05-15T09:13:59.988Z,64.94
2023-05-15T09:17:02.618Z,64.35
2023-05-15T09:20:06.237Z,63.10
2023-05-15T09:23:26.131Z,61.49
2023-05-15T09:26:28.660Z,60.89
2023-05-15T09:29:32.186Z,58.88
2023-05-15T09:32:35.024Z,58.72
2023-05-15T09:35:40.906Z,60.61
2023-05-15T09:38:43.803Z,62.58
2023-05-15T09:41:46.467Z,63.70
2023-05-15T09:44:49.219Z,64.66
2023-05-15T09:47:52.130Z,64.86
2023-05-15T09:50:55.305Z,64.30
2023-05-15T09:53:59.224Z,64.73
2023-05-15T09:57:14.006Z,66.13
2023-05-15T10:00:19.657Z,66.56
2023-05-15T10:03:23.497Z,65.20
2023-05-15T10:06:26.292Z,63.51
2023-05-15T10:09:32.417Z,60.46
2023-05-15T10:12:36.646Z,61.45
2023-05-15T10:15:39.870Z,59.83
2023-05-15T10:18:45.182Z,58.22
2023-05-15T10:21:48.248Z,56.08
2023-05-15T10:24:59.673Z,54.25
2023-05-15T10:28:02.571Z,54.43
2023-05-15T10:31:06.079Z,55.18
2023-05-15T10:34:10.416Z,55.13
2023-05-15T10:37:14.587Z,55.78
2023-05-15T10:40:17.892Z,54.23
2023-05-15T10:43:21.470Z,52.95
2023-05-15T10:46:24.738Z,50.70
2023-05-15T10:49:27.738Z,51.67
2023-05-15T10:56:14.875Z,49.19
2023-05-15T10:59:17.540Z,42.32
2023-05-15T11:02:23.367Z,41.45
2023-05-15T11:05:26.501Z,39.92
2023-05-15T11:08:29.089Z,40.96
2023-05-15T11:12:03.962Z,44.77
2023-05-15T11:15:09.475Z,45.40
2023-05-15T11:18:12.734Z,44.03
2023-05-15T11:21:15.237Z,38.63
2023-05-15T11:24:18.373Z,39.58
2023-05-15T11:27:33.730Z,44.95
2023-05-15T11:30:39.946Z,42.68
2023-05-15T11:33:42.613Z,42.62
2023-05-15T11:36:46.214Z,43.14
2023-05-15T11:39:52.298Z,45.30
2023-05-15T11:43:27.061Z,44.99
2023-05-15T11:46:30.455Z,36.99
2023-05-15T11:49:33.014Z,39.22
2023-05-15T11:52:36.200Z,38.86
2023-05-15T11:55:44.545Z,41.43
2023-05-15T11:59:00.500Z,37.77
2023-05-15T12:02:06.110Z,40.12
2023-05-15T12:05:09.626Z,44.02
2023-05-15T12:08:13.408Z,47.23
2023-05-15T12:11:16.240Z,46.21
2023-05-15T12:14:29.435Z,48.03
2023-05-15T12:17:33.280Z,46.27
2023-05-15T12:20:37.389Z,48.11
2023-05-15T12:23:40.018Z,50.06
2023-05-15T12:26:42.717Z,52.36
2023-05-15T12:29:45.901Z,52.47
2023-05-15T12:32:48.975Z,50.87
2023-05-15T12:35:58.931Z,46.82
2023-05-15T12:39:08.060Z,42.33
2023-05-15T12:42:10.813Z,40.89
2023-05-15T12:45:18.454Z,37.65
2023-05-15T12:48:21.815Z,43.32
2023-05-15T12:51:24.338Z,46.16
2023-05-15T12:54:26.868Z,47.79
2023-05-15T12:57:29.994Z,48.32
2023-05-15T13:00:34.673Z,50.05
2023-05-15T13:03:37.392Z,50.18
2023-05-15T13:06:46.605Z,50.35
2023-05-15T13:10:04.767Z,52.76
2023-05-15T13:13:07.414Z,53.29
2023-05-15T13:16:29.810Z,52.68
2023-05-15T13:19:32.637Z,51.99
2023-05-15T13:22:35.235Z,51.40
2023-05-15T13:25:37.886Z,51.46
2023-05-15T13:28:40.467Z,50.60
2023-05-15T13:31:43.160Z,49.36
2023-05-15T13:34:46.899Z,49.50
2023-05-15T13:37:50.041Z,48.93
2023-05-15T13:40:52.771Z,48.13
2023-05-15T13:43:55.223Z,45.69
2023-05-15T13:46:58.387Z,45.29
2023-05-15T13:50:01.207Z,35.80
2023-05-15T13:53:04.182Z,37.28
2023-05-15T13:56:07.363Z,33.75
2023-05-15T13:59:12.033Z,33.59
2023-05-15T14:02:16.031Z,39.22
2023-05-15T14:05:19.158Z,36.93
2023-05-15T14:08:21.809Z,38.85
2023-05-15T14:11:24.461Z,40.52
2023-05-15T14:14:27.017Z,42.40
2023-05-15T14:17:29.877Z,41.85
2023-05-15T14:20:32.337Z,40.61
2023-05-15T14:23:34.763Z,42.04
2023-05-15T14:26:37.345Z,42.21
2023-05-15T14:29:40.027Z,44.22
2023-05-15T14:32:42.669Z,45.28
2023-05-15T14:35:45.165Z,45.50
2023-05-15T14:38:48.860Z,46.55
2023-05-15T14:41:51.307Z,47.80
2023-05-15T14:44:53.842Z,48.32
2023-05-15T14:47:56.413Z,49.04
2023-05-15T14:50:58.891Z,48.96
2023-05-15T14:54:01.326Z,48.37
2023-05-15T14:57:04.065Z,49.81
2023-05-15T15:00:07.352Z,48.66
2023-05-15T15:03:10.951Z,50.40
2023-05-15T15:06:13.552Z,50.59
2023-05-15T15:09:16.013Z,52.60
2023-05-15T15:12:18.524Z,53.13
2023-05-15T15:15:21.569Z,53.88
2023-05-15T15:18:24.976Z,53.25
2023-05-15T15:21:27.574Z,53.11
2023-05-15T15:24:29.983Z,52.50
2023-05-15T15:27:33.253Z,51.12
2023-05-15T15:30:35.961Z,51.28
2023-05-15T15:33:38.440Z,49.21
2023-05-15T15:36:41.557Z,48.08
2023-05-15T15:39:44.070Z,47.85
2023-05-15T15:42:46.521Z,48.32
2023-05-15T15:45:48.918Z,47.09
2023-05-15T15:48:51.342Z,45.80
2023-05-15T15:51:53.923Z,42.82
2023-05-15T15:54:56.406Z,43.07
2023-05-15T15:57:58.818Z,41.33
2023-05-15T16:01:02.968Z,42.39
2023-05-15T16:04:05.413Z,42.99
2023-05-15T16:07:07.954Z,42.20
2023-05-15T16:10:13.355Z,43.15
2023-05-15T16:13:16.164Z,44.94
2023-05-15T16:16:18.807Z,46.01
2023-05-15T16:19:21.667Z,47.36
2023-05-15T16:22:24.116Z,49.13
2023-05-15T16:25:26.478Z,49.45
2023-05-15T16:28:28.924Z,50.48
2023-05-15T16:31:31.982Z,50.78
2023-05-15T16:34:34.409Z,52.39
2023-05-15T16:37:36.886Z,51.77
2023-05-15T16:40:39.437Z,51.69
2023-05-15T16:43:41.993Z,52.47
2023-05-15T16:46:44.446Z,53.40
2023-05-15T16:49:49.212Z,52.85
2023-05-15T16:52:52.719Z,52.84
2023-05-15T16:55:55.153Z,53.69
2023-05-15T16:58:57.578Z,52.86
2023-05-15T17:02:00.837Z,52.75
2023-05-15T17:05:03.873Z,52.52
2023-05-15T17:08:06.399Z,53.03
2023-05-15T17:11:09.839Z,53.40
2023-05-15T17:14:12.278Z,53.87
2023-05-15T17:17:14.685Z,55.59
2023-05-15T17:20:17.712Z,56.17
2023-05-15T17:23:22.856Z,57.49
2023-05-15T17:26:26.200Z,56.32
2023-05-15T17:29:28.637Z,56.40
2023-05-15T17:32:31.200Z,56.94
2023-05-15T17:35:33.845Z,56.30
2023-05-15T17:38:36.387Z,56.62
2023-05-15T17:41:38.798Z,57.92
2023-05-15T17:44:41.360Z,58.00
2023-05-15T17:47:43.967Z,58.24
2023-05-15T17:50:46.712Z,58.58
2023-05-15T17:53:49.114Z,58.52
2023-05-15T17:56:51.628Z,59.30
2023-05-15T17:59:54.127Z,59.20
2023-05-15T18:02:56.597Z,60.25
2023-05-15T18:05:59.388Z,60.56
2023-05-15T18:09:01.970Z,60.72
2023-05-15T18:12:04.545Z,61.38
2023-05-15T18:15:07.536Z,62.54
2023-05-15T18:18:10.297Z,63.63
2023-05-15T18:21:12.827Z,64.21
2023-05-15T18:24:15.406Z,64.60
2023-05-15T18:27:17.844Z,65.22
2023-05-15T18:30:20.463Z,66.24
2023-05-15T18:33:23.016Z,66.46
2023-05-15T18:36:25.967Z,66.57
2023-05-15T18:39:28.754Z,66.95
2023-05-15T18:42:31.379Z,67.34
2023-05-15T18:45:34.816Z,68.06
2023-05-15T18:48:37.269Z,68.90
2023-05-15T18:51:39.749Z,69.50
2023-05-15T18:54:42.266Z,69.54
2023-05-15T18:57:45.546Z,69.92
2023-05-15T19:00:48.045Z,70.74
2023-05-15T19:03:50.600Z,71.19
2023-05-15T19:06:53.210Z,71.17
2023-05-15T19:09:55.963Z,71.20
2023-05-15T19:12:58.740Z,72.37
2023-05-15T19:16:01.216Z,72.14
2023-05-15T19:19:03.900Z,72.21
2023-05-15T19:22:06.393Z,72.87
2023-05-15T19:25:09.325Z,73.43
2023-05-15T19:28:13.035Z,73.75
2023-05-15T19:31:27.828Z,72.94
2023-05-15T19:34:34.055Z,73.46
2023-05-15T19:37:37.108Z,74.06
2023-05-15T19:40:43.952Z,73.67
2023-05-15T19:43:47.121Z,74.38
2023-05-15T19:46:49.884Z,75.24
2023-05-15T19:49:52.464Z,74.64
2023-05-15T19:52:54.923Z,74.39
2023-05-15T19:55:57.388Z,74.18
2023-05-15T19:59:00.625Z,73.85
2023-05-15T20:02:03.342Z,74.30
2023-05-15T20:05:06.251Z,74.45
2023-05-15T20:08:08.836Z,75.83
2023-05-15T20:11:11.332Z,75.96
2023-05-15T20:14:14.882Z,75.83
2023-05-15T20:17:17.634Z,76.22
2023-05-15T20:20:20.193Z,76.26
2023-05-15T20:23:22.850Z,76.52
2023-05-15T20:26:25.330Z,76.76
2023-05-15T20:29:27.738Z,77.27
2023-05-15T20:32:30.669Z,77.22
2023-05-15T20:35:33.152Z,77.81
2023-05-15T20:38:36.033Z,77.85
2023-05-15T20:41:38.445Z,78.12
2023-05-15T20:44:40.944Z,78.68
2023-05-15T20:47:43.761Z,78.17
2023-05-15T20:50:46.322Z,78.28
2023-05-15T20:53:48.764Z,78.25
2023-05-15T20:56:51.174Z,78.48
2023-05-15T20:59:53.537Z,78.54
2023-05-15T21:02:56.099Z,78.44
2023-05-15T21:05:58.687Z,78.74
2023-05-15T21:09:01.098Z,78.82
2023-05-15T21:12:04.196Z,79.27
2023-05-15T21:15:07.473Z,79.79
2023-05-15T21:18:10.175Z,80.04
2023-05-15T21:21:12.728Z,80.69
2023-05-15T21:24:16.748Z,81.25
2023-05-15T21:27:20.184Z,80.93
2023-05-15T21:30:22.616Z,80.62
2023-05-15T21:33:25.017Z,80.85
2023-05-15T21:36:27.404Z,80.12
2023-05-15T21:39:29.780Z,79.80
2023-05-15T21:42:32.324Z,79.70
2023-05-15T21:45:34.926Z,79.70
2023-05-15T21:48:37.421Z,79.72
2023-05-15T21:51:40.031Z,79.13
2023-05-15T21:54:43.910Z,78.72
2023-05-15T21:57:46.474Z,78.58
2023-05-15T22:00:48.909Z,78.79
2023-05-15T22:03:51.512Z,79.12
2023-05-15T22:06:54.084Z,79.56
2023-05-15T22:09:56.746Z,79.99
2023-05-15T22:13:02.614Z,79.86
2023-05-15T22:16:06.438Z,80.28
2023-05-15T22:19:18.529Z,80.20
2023-05-15T22:22:31.241Z,79.69
2023-05-15T22:25:33.720Z,80.39
2023-05-15T22:28:36.142Z,80.41
2023-05-15T22:31:38.677Z,81.08
2023-05-15T22:34:41.113Z,81.78
2023-05-15T22:37:45.393Z,81.06
2023-05-15T22:40:51.673Z,81.03
2023-05-15T22:43:54.875Z,81.20
2023-05-15T22:46:57.329Z,82.07
2023-05-15T22:49:59.910Z,82.31
2023-05-15T22:53:02.687Z,82.27
2023-05-15T22:56:05.414Z,82.26
2023-05-15T22:59:07.889Z,82.84
2023-05-15T23:02:10.475Z,82.65
2023-05-15T23:05:12.894Z,82.85
2023-05-15T23:08:15.387Z,82.67
2023-05-15T23:11:17.866Z,82.70
2023-05-15T23:14:21.762Z,83.43
2023-05-15T23:17:25.812Z,83.66
2023-05-15T23:20:29.477Z,84.02
2023-05-15T23:23:32.383Z,84.43
2023-05-15T23:26:34.752Z,84.34
2023-05-15T23:29:37.222Z,84.50
2023-05-15T23:32:39.695Z,84.90
2023-05-15T23:35:43.281Z,85.27
2023-05-15T23:38:45.695Z,85.27
2023-05-15T23:41:48.165Z,85.42
2023-05-15T23:44:51.526Z,85.67
2023-05-15T23:47:54.031Z,86.20
2023-05-15T23:50:56.557Z,86.04
2023-05-15T23:53:58.970Z,85.98
2023-05-15T23:57:02.663Z,86.07
